Flight Track Log - Related Links

Times and Time Zones

All times are in EDT time to prevent confusion due to time zone crossing. See the ASH278A flight status page for this flight to view local times or setup timezone preferences in your user account.

Time Position Orientation Groundspeed Altitude Reporting Facility
EDT Latitude Longitude Course Direction KTS MPH feet Rate Location/Type
Sat 10:46:22 AM 32.8786 -79.9911 13° North 236 272 4,000  Level Jacksonville Center
Sat 10:47:22 AM 32.9294 -79.9400 40° Northeast 236 272 6,400 2,700 Climbing Jacksonville Center
Sat 10:48:22 AM 33.0003 -79.9328 North 241 277 9,400 2,400 Climbing Jacksonville Center
Sat 10:49:22 AM 33.0817 -79.9350 359° North 255 293 11,200 1,700 Climbing Jacksonville Center
Sat 10:50:22 AM 33.1925 -79.9389 358° North 319 367 12,800 1,700 Climbing Jacksonville Center
Sat 10:51:00 AM 33.4743 -79.8597 13° North  Level FlightAware Approximate
Sat 10:51:22 AM 33.2964 -79.9206 North 349 402 14,600  Level Jacksonville Center
Sat 10:52:22 AM 33.4064 -79.8894 13° North 382 440 16,400 1,750 Climbing Jacksonville Center
Sat 10:53:22 AM 33.5183 -79.8608 12° North 396 456 18,100 1,300 Climbing Jacksonville Center
Sat 10:54:22 AM 33.6328 -79.8542 North 406 467 19,000 450 Climbing Jacksonville Center
Sat 10:55:22 AM 33.7489 -79.9078 339° North 411 473 19,000  Level Jacksonville Center
Sat 10:56:22 AM 33.8628 -79.9589 340° North 423 487 19,000  Level Jacksonville Center
Sat 10:57:22 AM 33.9767 -80.0103 339° North 429 494 19,000  Level Jacksonville Center
Sat 10:58:22 AM 34.0925 -80.0614 340° North 436 502 19,000  Level Jacksonville Center
Sat 10:59:22 AM 34.2044 -80.1131 339° North 436 502 19,000 -1,100 Level Jacksonville Center
Sat 11:00:22 AM 34.3161 -80.1647 339° North 436 502 16,800 -2,350 Descending Jacksonville Center
Sat 11:01:22 AM 34.4236 -80.2169 338° Northwest 431 496 14,300 -2,109 Descending Jacksonville Center
Sat 11:03:07 AM 34.6078 -80.3011 339° North 396 456 11,000 -1,193 Descending Atlanta Center
Sat 11:04:08 AM 34.6944 -80.3428 338° Northwest 317 365 11,000  Level Atlanta Center
Sat 11:05:09 AM 34.7547 -80.4083 318° Northwest 282 325 11,000  Level Atlanta Center
Sat 11:06:10 AM 34.8156 -80.4842 314° West 306 352 11,000  Level Atlanta Center
Sat 11:07:17 AM 34.8825 -80.5675 314° West 306 352 11,000  Level Atlanta Center
Sat 11:08:17 AM 34.9408 -80.6383 315° West 301 346 11,000  Level Atlanta Center
Sat 11:09:18 AM 34.9992 -80.7122 314° West 301 346 11,000 -934 Level Atlanta Center
Sat 11:10:19 AM 35.0556 -80.7833 314° West 298 343 9,100 -984 Descending Atlanta Center
Sat 11:11:20 AM 35.1294 -80.8161 340° North 280 322 9,000 -806 Descending Atlanta Center
Sat 11:12:33 AM 35.2042 -80.8056 North 220 253 7,300 -1,388 Descending Atlanta Center
Sat 11:13:34 AM 35.2464 -80.7506 47° Northeast 216 249 5,900 -1,357 Descending Atlanta Center
Sat 11:14:28 AM 35.2847 -80.6981 48° Northeast 216 249 4,700 -991 Descending Atlanta Center
Sat 11:15:29 AM 35.3322 -80.6758 21° North 202 232 4,000 -344 Descending Atlanta Center
Sat 11:16:30 AM 35.3728 -80.7122 324° Northwest 181 208 4,000  Level Atlanta Center
Sat 11:17:25 AM 35.3572 -80.7511 244° Southwest 164 189 4,000 -98 Level Atlanta Center
Sat 11:18:32 AM 35.3228 -80.7933 225° Southwest 162 186 3,800 -567 Descending Atlanta Center
Sat 11:19:32 AM 35.2925 -80.8353 229° Southwest 168 193 2,800 -893 Descending Atlanta Center
Sat 11:20:33 AM 35.2644 -80.8744 229° Southwest 151 174 2,000 -738 Descending Atlanta Center
Sat 11:21:34 AM 35.2383 -80.9136 231° Southwest 134 154 1,300 -689 Descending Atlanta Center

Login

Don't have an account? Register now (free) for customized features, flight alerts, and more!